sensor_id;sensor_type;location;lat;lon;timestamp;P1;durP1;ratioP1;P2;durP2;ratioP2
5981;SDS011;3018;48.730;9.336;2022-09-06T00:00:51;7.93;;;3.00;;
5981;SDS011;3018;48.730;9.336;2022-09-06T00:03:18;3.60;;;2.92;;
5981;SDS011;3018;48.730;9.336;2022-09-06T00:05:44;2.65;;;2.55;;
5981;SDS011;3018;48.730;9.336;2022-09-06T00:08:10;3.70;;;3.40;;
5981;SDS011;3018;48.730;9.336;2022-09-06T00:10:36;3.83;;;3.47;;
5981;SDS011;3018;48.730;9.336;2022-09-06T00:13:03;4.35;;;3.17;;
5981;SDS011;3018;48.730;9.336;2022-09-06T00:15:30;3.17;;;2.50;;
5981;SDS011;3018;48.730;9.336;2022-09-06T00:17:58;2.90;;;2.70;;
5981;SDS011;3018;48.730;9.336;2022-09-06T00:20:25;3.53;;;3.08;;
5981;SDS011;3018;48.730;9.336;2022-09-06T00:22:53;3.45;;;3.15;;
5981;SDS011;3018;48.730;9.336;2022-09-06T00:25:21;2.90;;;2.58;;
5981;SDS011;3018;48.730;9.336;2022-09-06T00:27:47;3.10;;;2.90;;
5981;SDS011;3018;48.730;9.336;2022-09-06T00:30:17;2.72;;;2.63;;
5981;SDS011;3018;48.730;9.336;2022-09-06T00:32:43;3.30;;;3.00;;
5981;SDS011;3018;48.730;9.336;2022-09-06T00:35:11;3.38;;;3.08;;
5981;SDS011;3018;48.730;9.336;2022-09-06T00:37:37;4.85;;;2.95;;
5981;SDS011;3018;48.730;9.336;2022-09-06T00:40:04;3.17;;;3.05;;
5981;SDS011;3018;48.730;9.336;2022-09-06T00:42:30;3.15;;;2.75;;
5981;SDS011;3018;48.730;9.336;2022-09-06T00:44:57;3.25;;;2.95;;
5981;SDS011;3018;48.730;9.336;2022-09-06T00:47:23;3.90;;;2.65;;
5981;SDS011;3018;48.730;9.336;2022-09-06T00:49:51;2.72;;;2.63;;
5981;SDS011;3018;48.730;9.336;2022-09-06T00:52:19;3.28;;;2.97;;
5981;SDS011;3018;48.730;9.336;2022-09-06T00:54:46;3.08;;;2.95;;
5981;SDS011;3018;48.730;9.336;2022-09-06T00:57:13;2.90;;;2.72;;
5981;SDS011;3018;48.730;9.336;2022-09-06T00:59:40;3.67;;;3.20;;
5981;SDS011;3018;48.730;9.336;2022-09-06T01:02:07;2.90;;;2.80;;
5981;SDS011;3018;48.730;9.336;2022-09-06T01:04:34;4.40;;;3.13;;
5981;SDS011;3018;48.730;9.336;2022-09-06T01:07:02;3.92;;;3.33;;
5981;SDS011;3018;48.730;9.336;2022-09-06T01:09:35;3.30;;;3.10;;
5981;SDS011;3018;48.730;9.336;2022-09-06T01:12:09;4.07;;;3.63;;
5981;SDS011;3018;48.730;9.336;2022-09-06T01:14:42;6.30;;;3.70;;
5981;SDS011;3018;48.730;9.336;2022-09-06T01:17:10;3.88;;;3.67;;
5981;SDS011;3018;48.730;9.336;2022-09-06T01:19:45;3.80;;;3.60;;
5981;SDS011;3018;48.730;9.336;2022-09-06T01:22:22;3.83;;;3.53;;
5981;SDS011;3018;48.730;9.336;2022-09-06T01:25:00;3.72;;;3.45;;
5981;SDS011;3018;48.730;9.336;2022-09-06T01:27:37;6.50;;;3.85;;
5981;SDS011;3018;48.730;9.336;2022-09-06T01:30:06;5.28;;;3.75;;
5981;SDS011;3018;48.730;9.336;2022-09-06T01:32:35;3.95;;;3.50;;
5981;SDS011;3018;48.730;9.336;2022-09-06T01:35:04;3.80;;;3.30;;
5981;SDS011;3018;48.730;9.336;2022-09-06T01:37:31;4.55;;;3.38;;
5981;SDS011;3018;48.730;9.336;2022-09-06T01:39:58;3.63;;;3.33;;
5981;SDS011;3018;48.730;9.336;2022-09-06T01:42:24;4.13;;;3.88;;
5981;SDS011;3018;48.730;9.336;2022-09-06T01:44:54;4.47;;;4.07;;
5981;SDS011;3018;48.730;9.336;2022-09-06T01:47:23;4.07;;;3.67;;
5981;SDS011;3018;48.730;9.336;2022-09-06T01:49:58;6.93;;;3.97;;
5981;SDS011;3018;48.730;9.336;2022-09-06T01:52:30;3.15;;;2.95;;
5981;SDS011;3018;48.730;9.336;2022-09-06T01:55:04;3.35;;;3.15;;
5981;SDS011;3018;48.730;9.336;2022-09-06T01:57:40;3.58;;;3.28;;
5981;SDS011;3018;48.730;9.336;2022-09-06T02:00:13;4.32;;;3.90;;
5981;SDS011;3018;48.730;9.336;2022-09-06T02:02:47;3.50;;;3.30;;
5981;SDS011;3018;48.730;9.336;2022-09-06T02:05:17;3.50;;;3.20;;
5981;SDS011;3018;48.730;9.336;2022-09-06T02:07:46;4.40;;;3.60;;
5981;SDS011;3018;48.730;9.336;2022-09-06T02:10:14;5.88;;;3.28;;
5981;SDS011;3018;48.730;9.336;2022-09-06T02:12:42;3.75;;;3.45;;
5981;SDS011;3018;48.730;9.336;2022-09-06T02:15:10;3.58;;;3.28;;
5981;SDS011;3018;48.730;9.336;2022-09-06T02:17:40;4.57;;;4.18;;
5981;SDS011;3018;48.730;9.336;2022-09-06T02:20:08;5.28;;;4.22;;
5981;SDS011;3018;48.730;9.336;2022-09-06T02:22:35;4.93;;;4.45;;
5981;SDS011;3018;48.730;9.336;2022-09-06T02:25:02;4.43;;;3.65;;
5981;SDS011;3018;48.730;9.336;2022-09-06T02:27:29;4.55;;;4.05;;
5981;SDS011;3018;48.730;9.336;2022-09-06T02:29:56;3.78;;;3.50;;
5981;SDS011;3018;48.730;9.336;2022-09-06T02:32:23;4.05;;;3.75;;
5981;SDS011;3018;48.730;9.336;2022-09-06T02:34:51;4.40;;;4.10;;
5981;SDS011;3018;48.730;9.336;2022-09-06T02:37:18;7.63;;;4.47;;
5981;SDS011;3018;48.730;9.336;2022-09-06T02:39:45;7.57;;;4.30;;
5981;SDS011;3018;48.730;9.336;2022-09-06T02:42:11;7.65;;;4.70;;
5981;SDS011;3018;48.730;9.336;2022-09-06T02:44:39;8.80;;;4.30;;
5981;SDS011;3018;48.730;9.336;2022-09-06T02:47:05;4.65;;;4.22;;
5981;SDS011;3018;48.730;9.336;2022-09-06T02:49:31;4.20;;;3.80;;
5981;SDS011;3018;48.730;9.336;2022-09-06T02:51:59;5.43;;;4.10;;
5981;SDS011;3018;48.730;9.336;2022-09-06T02:54:26;5.45;;;3.92;;
5981;SDS011;3018;48.730;9.336;2022-09-06T02:56:52;4.20;;;3.83;;
5981;SDS011;3018;48.730;9.336;2022-09-06T02:59:18;4.20;;;4.00;;
5981;SDS011;3018;48.730;9.336;2022-09-06T03:01:44;5.45;;;3.75;;
5981;SDS011;3018;48.730;9.336;2022-09-06T03:04:11;4.20;;;3.85;;
5981;SDS011;3018;48.730;9.336;2022-09-06T03:06:37;7.18;;;3.85;;
5981;SDS011;3018;48.730;9.336;2022-09-06T03:09:04;3.90;;;3.60;;
5981;SDS011;3018;48.730;9.336;2022-09-06T03:11:31;3.72;;;3.53;;
5981;SDS011;3018;48.730;9.336;2022-09-06T03:13:57;4.35;;;3.95;;
5981;SDS011;3018;48.730;9.336;2022-09-06T03:16:23;5.53;;;3.97;;
5981;SDS011;3018;48.730;9.336;2022-09-06T03:18:49;10.60;;;4.63;;
5981;SDS011;3018;48.730;9.336;2022-09-06T03:21:15;9.27;;;5.07;;
5981;SDS011;3018;48.730;9.336;2022-09-06T03:23:42;6.57;;;4.35;;
5981;SDS011;3018;48.730;9.336;2022-09-06T03:26:11;5.65;;;4.57;;
5981;SDS011;3018;48.730;9.336;2022-09-06T03:28:37;7.57;;;4.60;;
5981;SDS011;3018;48.730;9.336;2022-09-06T03:31:03;8.13;;;5.70;;
5981;SDS011;3018;48.730;9.336;2022-09-06T03:33:30;9.25;;;4.95;;
5981;SDS011;3018;48.730;9.336;2022-09-06T03:35:57;7.57;;;5.55;;
5981;SDS011;3018;48.730;9.336;2022-09-06T03:38:23;5.15;;;4.65;;
5981;SDS011;3018;48.730;9.336;2022-09-06T03:40:50;6.70;;;4.88;;
5981;SDS011;3018;48.730;9.336;2022-09-06T03:43:19;5.15;;;4.75;;
5981;SDS011;3018;48.730;9.336;2022-09-06T03:45:45;5.50;;;4.95;;
5981;SDS011;3018;48.730;9.336;2022-09-06T03:48:12;6.07;;;4.60;;
5981;SDS011;3018;48.730;9.336;2022-09-06T03:50:38;6.20;;;5.00;;
5981;SDS011;3018;48.730;9.336;2022-09-06T03:53:07;5.63;;;5.07;;
5981;SDS011;3018;48.730;9.336;2022-09-06T03:55:34;7.35;;;4.90;;
5981;SDS011;3018;48.730;9.336;2022-09-06T03:58:00;7.30;;;4.70;;
5981;SDS011;3018;48.730;9.336;2022-09-06T04:00:27;6.22;;;5.63;;
5981;SDS011;3018;48.730;9.336;2022-09-06T04:02:54;5.93;;;5.32;;
5981;SDS011;3018;48.730;9.336;2022-09-06T04:05:20;5.22;;;4.70;;
5981;SDS011;3018;48.730;9.336;2022-09-06T04:07:46;6.20;;;4.65;;
5981;SDS011;3018;48.730;9.336;2022-09-06T04:10:12;5.28;;;4.65;;
5981;SDS011;3018;48.730;9.336;2022-09-06T04:12:39;4.80;;;4.40;;
5981;SDS011;3018;48.730;9.336;2022-09-06T04:15:05;5.22;;;4.75;;
5981;SDS011;3018;48.730;9.336;2022-09-06T04:17:33;10.88;;;4.85;;
5981;SDS011;3018;48.730;9.336;2022-09-06T04:20:00;5.60;;;5.07;;
5981;SDS011;3018;48.730;9.336;2022-09-06T04:22:26;4.93;;;4.50;;
5981;SDS011;3018;48.730;9.336;2022-09-06T04:24:52;10.38;;;4.80;;
5981;SDS011;3018;48.730;9.336;2022-09-06T04:27:18;4.68;;;4.28;;
5981;SDS011;3018;48.730;9.336;2022-09-06T04:29:44;6.75;;;5.30;;
5981;SDS011;3018;48.730;9.336;2022-09-06T04:32:11;5.25;;;4.72;;
5981;SDS011;3018;48.730;9.336;2022-09-06T04:34:38;6.93;;;4.75;;
5981;SDS011;3018;48.730;9.336;2022-09-06T04:37:04;5.40;;;4.80;;
5981;SDS011;3018;48.730;9.336;2022-09-06T04:39:31;4.72;;;4.40;;
5981;SDS011;3018;48.730;9.336;2022-09-06T04:41:57;6.00;;;4.95;;
5981;SDS011;3018;48.730;9.336;2022-09-06T04:44:23;7.93;;;5.53;;
5981;SDS011;3018;48.730;9.336;2022-09-06T04:46:49;6.30;;;4.85;;
5981;SDS011;3018;48.730;9.336;2022-09-06T04:49:16;4.93;;;4.60;;
5981;SDS011;3018;48.730;9.336;2022-09-06T04:51:43;6.47;;;5.25;;
5981;SDS011;3018;48.730;9.336;2022-09-06T04:54:09;7.00;;;5.43;;
5981;SDS011;3018;48.730;9.336;2022-09-06T04:56:36;6.40;;;5.05;;
5981;SDS011;3018;48.730;9.336;2022-09-06T04:59:03;6.07;;;5.32;;
5981;SDS011;3018;48.730;9.336;2022-09-06T05:01:30;6.55;;;5.75;;
5981;SDS011;3018;48.730;9.336;2022-09-06T05:03:56;6.60;;;5.32;;
5981;SDS011;3018;48.730;9.336;2022-09-06T05:06:23;8.02;;;5.50;;
5981;SDS011;3018;48.730;9.336;2022-09-06T05:08:51;6.47;;;4.53;;
5981;SDS011;3018;48.730;9.336;2022-09-06T05:11:17;8.25;;;6.18;;
5981;SDS011;3018;48.730;9.336;2022-09-06T05:13:44;4.97;;;4.57;;
5981;SDS011;3018;48.730;9.336;2022-09-06T05:16:10;6.05;;;5.60;;
5981;SDS011;3018;48.730;9.336;2022-09-06T05:18:36;5.50;;;5.07;;
5981;SDS011;3018;48.730;9.336;2022-09-06T05:21:03;6.38;;;5.75;;
5981;SDS011;3018;48.730;9.336;2022-09-06T05:23:29;7.85;;;5.35;;
5981;SDS011;3018;48.730;9.336;2022-09-06T05:25:57;5.60;;;5.20;;
5981;SDS011;3018;48.730;9.336;2022-09-06T05:28:23;5.78;;;5.28;;
5981;SDS011;3018;48.730;9.336;2022-09-06T05:30:49;7.88;;;5.88;;
5981;SDS011;3018;48.730;9.336;2022-09-06T05:33:18;11.80;;;6.10;;
5981;SDS011;3018;48.730;9.336;2022-09-06T05:35:45;6.10;;;5.50;;
5981;SDS011;3018;48.730;9.336;2022-09-06T05:38:11;10.00;;;5.97;;
5981;SDS011;3018;48.730;9.336;2022-09-06T05:40:37;6.50;;;5.90;;
5981;SDS011;3018;48.730;9.336;2022-09-06T05:43:05;8.98;;;6.05;;
5981;SDS011;3018;48.730;9.336;2022-09-06T05:45:31;7.85;;;5.75;;
5981;SDS011;3018;48.730;9.336;2022-09-06T05:47:57;16.27;;;6.18;;
5981;SDS011;3018;48.730;9.336;2022-09-06T05:50:23;5.93;;;5.38;;
5981;SDS011;3018;48.730;9.336;2022-09-06T05:52:51;6.75;;;5.68;;
5981;SDS011;3018;48.730;9.336;2022-09-06T05:55:18;6.57;;;5.38;;
5981;SDS011;3018;48.730;9.336;2022-09-06T05:57:44;6.85;;;6.20;;
5981;SDS011;3018;48.730;9.336;2022-09-06T06:00:12;8.02;;;6.18;;
5981;SDS011;3018;48.730;9.336;2022-09-06T06:02:39;6.38;;;5.80;;
5981;SDS011;3018;48.730;9.336;2022-09-06T06:05:05;9.80;;;6.88;;
5981;SDS011;3018;48.730;9.336;2022-09-06T06:07:32;12.80;;;6.75;;
5981;SDS011;3018;48.730;9.336;2022-09-06T06:09:58;9.00;;;6.78;;
5981;SDS011;3018;48.730;9.336;2022-09-06T06:12:24;8.82;;;7.22;;
5981;SDS011;3018;48.730;9.336;2022-09-06T06:14:50;12.40;;;7.18;;
5981;SDS011;3018;48.730;9.336;2022-09-06T06:17:18;7.88;;;7.03;;
5981;SDS011;3018;48.730;9.336;2022-09-06T06:19:44;12.50;;;6.40;;
5981;SDS011;3018;48.730;9.336;2022-09-06T06:22:11;6.47;;;5.82;;
5981;SDS011;3018;48.730;9.336;2022-09-06T06:24:37;10.13;;;6.70;;
5981;SDS011;3018;48.730;9.336;2022-09-06T06:27:03;8.25;;;6.57;;
5981;SDS011;3018;48.730;9.336;2022-09-06T06:29:29;7.80;;;6.70;;
5981;SDS011;3018;48.730;9.336;2022-09-06T06:31:56;11.13;;;7.28;;
5981;SDS011;3018;48.730;9.336;2022-09-06T06:34:23;10.45;;;7.43;;
5981;SDS011;3018;48.730;9.336;2022-09-06T06:36:49;11.38;;;7.60;;
5981;SDS011;3018;48.730;9.336;2022-09-06T06:39:16;10.98;;;7.90;;
5981;SDS011;3018;48.730;9.336;2022-09-06T06:41:43;12.15;;;8.45;;
5981;SDS011;3018;48.730;9.336;2022-09-06T06:44:09;11.00;;;7.35;;
5981;SDS011;3018;48.730;9.336;2022-09-06T06:46:36;9.57;;;6.45;;
5981;SDS011;3018;48.730;9.336;2022-09-06T06:49:03;12.38;;;7.75;;
5981;SDS011;3018;48.730;9.336;2022-09-06T06:51:31;7.93;;;6.72;;
5981;SDS011;3018;48.730;9.336;2022-09-06T06:54:00;10.27;;;7.03;;
5981;SDS011;3018;48.730;9.336;2022-09-06T06:56:26;14.05;;;7.78;;
5981;SDS011;3018;48.730;9.336;2022-09-06T06:58:53;7.97;;;6.63;;
5981;SDS011;3018;48.730;9.336;2022-09-06T07:01:21;6.95;;;5.95;;
5981;SDS011;3018;48.730;9.336;2022-09-06T07:03:48;6.63;;;6.05;;
5981;SDS011;3018;48.730;9.336;2022-09-06T07:06:15;6.95;;;6.22;;
5981;SDS011;3018;48.730;9.336;2022-09-06T07:08:42;12.25;;;6.50;;
5981;SDS011;3018;48.730;9.336;2022-09-06T07:11:10;7.20;;;6.22;;
5981;SDS011;3018;48.730;9.336;2022-09-06T07:13:36;8.20;;;6.03;;
5981;SDS011;3018;48.730;9.336;2022-09-06T07:16:06;6.63;;;6.03;;
5981;SDS011;3018;48.730;9.336;2022-09-06T07:18:33;8.48;;;6.68;;
5981;SDS011;3018;48.730;9.336;2022-09-06T07:20:59;14.70;;;6.57;;
5981;SDS011;3018;48.730;9.336;2022-09-06T07:23:25;6.47;;;5.97;;
5981;SDS011;3018;48.730;9.336;2022-09-06T07:25:53;8.20;;;6.47;;
5981;SDS011;3018;48.730;9.336;2022-09-06T07:28:19;10.07;;;6.57;;
5981;SDS011;3018;48.730;9.336;2022-09-06T07:30:47;7.80;;;7.00;;
5981;SDS011;3018;48.730;9.336;2022-09-06T07:33:17;13.35;;;7.38;;
5981;SDS011;3018;48.730;9.336;2022-09-06T07:35:52;12.55;;;6.22;;
5981;SDS011;3018;48.730;9.336;2022-09-06T07:38:19;6.55;;;5.53;;
5981;SDS011;3018;48.730;9.336;2022-09-06T07:40:48;6.40;;;5.75;;
5981;SDS011;3018;48.730;9.336;2022-09-06T07:43:18;6.63;;;5.63;;
5981;SDS011;3018;48.730;9.336;2022-09-06T07:45:44;8.93;;;6.45;;
5981;SDS011;3018;48.730;9.336;2022-09-06T07:48:11;7.38;;;5.70;;
5981;SDS011;3018;48.730;9.336;2022-09-06T07:50:37;10.07;;;6.28;;
5981;SDS011;3018;48.730;9.336;2022-09-06T07:53:03;10.65;;;6.88;;
5981;SDS011;3018;48.730;9.336;2022-09-06T07:55:30;7.00;;;6.30;;
5981;SDS011;3018;48.730;9.336;2022-09-06T07:57:56;7.40;;;6.70;;
5981;SDS011;3018;48.730;9.336;2022-09-06T08:00:23;7.72;;;5.32;;
5981;SDS011;3018;48.730;9.336;2022-09-06T08:02:50;12.32;;;6.20;;
5981;SDS011;3018;48.730;9.336;2022-09-06T08:05:16;6.68;;;6.22;;
5981;SDS011;3018;48.730;9.336;2022-09-06T08:07:42;7.25;;;6.50;;
5981;SDS011;3018;48.730;9.336;2022-09-06T08:10:08;7.78;;;5.93;;
5981;SDS011;3018;48.730;9.336;2022-09-06T08:12:35;7.57;;;6.18;;
5981;SDS011;3018;48.730;9.336;2022-09-06T08:15:02;6.15;;;5.47;;
5981;SDS011;3018;48.730;9.336;2022-09-06T08:17:29;10.07;;;5.53;;
5981;SDS011;3018;48.730;9.336;2022-09-06T08:19:59;7.72;;;5.65;;
5981;SDS011;3018;48.730;9.336;2022-09-06T08:22:26;8.93;;;5.63;;
5981;SDS011;3018;48.730;9.336;2022-09-06T08:24:52;7.80;;;4.78;;
5981;SDS011;3018;48.730;9.336;2022-09-06T08:27:18;16.27;;;5.93;;
5981;SDS011;3018;48.730;9.336;2022-09-06T08:29:44;12.25;;;6.40;;
5981;SDS011;3018;48.730;9.336;2022-09-06T08:32:11;8.85;;;6.18;;
5981;SDS011;3018;48.730;9.336;2022-09-06T08:34:38;6.32;;;5.35;;
5981;SDS011;3018;48.730;9.336;2022-09-06T08:37:04;10.02;;;7.70;;
5981;SDS011;3018;48.730;9.336;2022-09-06T08:39:31;5.40;;;4.93;;
5981;SDS011;3018;48.730;9.336;2022-09-06T08:41:58;7.30;;;4.93;;
5981;SDS011;3018;48.730;9.336;2022-09-06T08:44:26;9.18;;;5.03;;
5981;SDS011;3018;48.730;9.336;2022-09-06T08:46:54;6.78;;;5.70;;
5981;SDS011;3018;48.730;9.336;2022-09-06T08:49:22;5.50;;;4.63;;
5981;SDS011;3018;48.730;9.336;2022-09-06T08:51:53;4.70;;;4.38;;
5981;SDS011;3018;48.730;9.336;2022-09-06T08:54:23;5.63;;;3.80;;
5981;SDS011;3018;48.730;9.336;2022-09-06T08:57:00;5.60;;;4.53;;
5981;SDS011;3018;48.730;9.336;2022-09-06T08:59:28;4.32;;;3.90;;
5981;SDS011;3018;48.730;9.336;2022-09-06T09:02:01;4.60;;;4.18;;
5981;SDS011;3018;48.730;9.336;2022-09-06T09:04:33;5.00;;;3.72;;
5981;SDS011;3018;48.730;9.336;2022-09-06T09:07:11;9.43;;;3.78;;
5981;SDS011;3018;48.730;9.336;2022-09-06T09:09:40;4.47;;;4.00;;
5981;SDS011;3018;48.730;9.336;2022-09-06T09:12:06;4.25;;;3.95;;
5981;SDS011;3018;48.730;9.336;2022-09-06T09:14:34;4.32;;;3.63;;
5981;SDS011;3018;48.730;9.336;2022-09-06T09:17:02;3.67;;;3.42;;
5981;SDS011;3018;48.730;9.336;2022-09-06T09:19:30;5.70;;;3.70;;
5981;SDS011;3018;48.730;9.336;2022-09-06T09:22:02;5.22;;;3.80;;
5981;SDS011;3018;48.730;9.336;2022-09-06T09:24:28;4.68;;;3.67;;
5981;SDS011;3018;48.730;9.336;2022-09-06T09:26:55;5.25;;;4.05;;
5981;SDS011;3018;48.730;9.336;2022-09-06T09:29:22;10.75;;;3.40;;
5981;SDS011;3018;48.730;9.336;2022-09-06T09:31:49;3.83;;;3.38;;
5981;SDS011;3018;48.730;9.336;2022-09-06T09:34:26;3.15;;;3.00;;
5981;SDS011;3018;48.730;9.336;2022-09-06T09:39:35;4.88;;;3.50;;
5981;SDS011;3018;48.730;9.336;2022-09-06T09:42:03;4.32;;;3.25;;
5981;SDS011;3018;48.730;9.336;2022-09-06T09:44:29;6.40;;;4.18;;
5981;SDS011;3018;48.730;9.336;2022-09-06T09:46:55;5.05;;;3.33;;
5981;SDS011;3018;48.730;9.336;2022-09-06T09:49:26;5.45;;;3.33;;
5981;SDS011;3018;48.730;9.336;2022-09-06T09:52:03;10.77;;;3.38;;
5981;SDS011;3018;48.730;9.336;2022-09-06T09:54:30;8.07;;;3.50;;
5981;SDS011;3018;48.730;9.336;2022-09-06T09:56:58;4.32;;;3.17;;
5981;SDS011;3018;48.730;9.336;2022-09-06T09:59:24;4.15;;;3.25;;
5981;SDS011;3018;48.730;9.336;2022-09-06T10:01:52;5.97;;;3.40;;
5981;SDS011;3018;48.730;9.336;2022-09-06T10:04:21;7.03;;;3.40;;
5981;SDS011;3018;48.730;9.336;2022-09-06T10:06:49;3.53;;;3.22;;
5981;SDS011;3018;48.730;9.336;2022-09-06T10:09:18;11.75;;;3.63;;
5981;SDS011;3018;48.730;9.336;2022-09-06T10:11:54;6.15;;;3.03;;
5981;SDS011;3018;48.730;9.336;2022-09-06T10:14:28;4.43;;;2.78;;
5981;SDS011;3018;48.730;9.336;2022-09-06T10:16:55;7.35;;;3.17;;
5981;SDS011;3018;48.730;9.336;2022-09-06T10:19:34;8.82;;;3.63;;
5981;SDS011;3018;48.730;9.336;2022-09-06T10:22:02;5.88;;;3.38;;
5981;SDS011;3018;48.730;9.336;2022-09-06T10:24:35;10.73;;;2.95;;
5981;SDS011;3018;48.730;9.336;2022-09-06T10:27:06;11.27;;;3.22;;
5981;SDS011;3018;48.730;9.336;2022-09-06T10:29:34;12.40;;;3.85;;
5981;SDS011;3018;48.730;9.336;2022-09-06T10:32:06;9.48;;;2.78;;
5981;SDS011;3018;48.730;9.336;2022-09-06T10:34:43;13.15;;;3.20;;
5981;SDS011;3018;48.730;9.336;2022-09-06T10:37:19;9.35;;;3.03;;
5981;SDS011;3018;48.730;9.336;2022-09-06T10:39:48;15.25;;;3.35;;
5981;SDS011;3018;48.730;9.336;2022-09-06T10:42:18;9.68;;;2.55;;
5981;SDS011;3018;48.730;9.336;2022-09-06T10:44:56;13.45;;;3.30;;
5981;SDS011;3018;48.730;9.336;2022-09-06T10:47:26;12.88;;;3.72;;
5981;SDS011;3018;48.730;9.336;2022-09-06T10:49:55;11.75;;;3.30;;
5981;SDS011;3018;48.730;9.336;2022-09-06T10:52:24;9.07;;;2.78;;
5981;SDS011;3018;48.730;9.336;2022-09-06T10:54:52;7.55;;;2.50;;
5981;SDS011;3018;48.730;9.336;2022-09-06T10:57:22;12.15;;;3.50;;
5981;SDS011;3018;48.730;9.336;2022-09-06T10:59:52;20.10;;;4.63;;
5981;SDS011;3018;48.730;9.336;2022-09-06T11:02:25;9.88;;;3.13;;
5981;SDS011;3018;48.730;9.336;2022-09-06T11:04:57;6.80;;;2.58;;
5981;SDS011;3018;48.730;9.336;2022-09-06T11:07:26;14.98;;;3.50;;
5981;SDS011;3018;48.730;9.336;2022-09-06T11:09:54;15.50;;;5.32;;
5981;SDS011;3018;48.730;9.336;2022-09-06T11:12:22;10.30;;;3.50;;
5981;SDS011;3018;48.730;9.336;2022-09-06T11:14:52;11.48;;;3.08;;
5981;SDS011;3018;48.730;9.336;2022-09-06T11:17:19;8.77;;;3.40;;
5981;SDS011;3018;48.730;9.336;2022-09-06T11:19:50;6.10;;;2.90;;
5981;SDS011;3018;48.730;9.336;2022-09-06T11:22:25;8.73;;;3.35;;
5981;SDS011;3018;48.730;9.336;2022-09-06T11:24:58;6.13;;;2.40;;
5981;SDS011;3018;48.730;9.336;2022-09-06T11:27:32;9.90;;;2.67;;
5981;SDS011;3018;48.730;9.336;2022-09-06T11:30:00;14.88;;;3.75;;
5981;SDS011;3018;48.730;9.336;2022-09-06T11:32:28;12.18;;;3.35;;
5981;SDS011;3018;48.730;9.336;2022-09-06T11:34:58;10.60;;;2.85;;
5981;SDS011;3018;48.730;9.336;2022-09-06T11:37:26;10.68;;;3.08;;
5981;SDS011;3018;48.730;9.336;2022-09-06T11:40:01;11.30;;;2.85;;
5981;SDS011;3018;48.730;9.336;2022-09-06T11:42:38;9.05;;;4.22;;
5981;SDS011;3018;48.730;9.336;2022-09-06T11:45:12;17.67;;;5.15;;
5981;SDS011;3018;48.730;9.336;2022-09-06T11:47:43;11.80;;;2.92;;
5981;SDS011;3018;48.730;9.336;2022-09-06T11:50:53;17.33;;;8.80;;
5981;SDS011;3018;48.730;9.336;2022-09-06T11:53:13;9.32;;;3.70;;
5981;SDS011;3018;48.730;9.336;2022-09-06T11:55:42;15.13;;;2.60;;
5981;SDS011;3018;48.730;9.336;2022-09-06T11:58:09;11.90;;;4.20;;
5981;SDS011;3018;48.730;9.336;2022-09-06T12:00:44;11.40;;;4.13;;
5981;SDS011;3018;48.730;9.336;2022-09-06T12:06:14;19.65;;;3.65;;
5981;SDS011;3018;48.730;9.336;2022-09-06T12:08:41;8.73;;;2.75;;
5981;SDS011;3018;48.730;9.336;2022-09-06T12:14:01;7.57;;;2.20;;
5981;SDS011;3018;48.730;9.336;2022-09-06T12:21:56;7.10;;;2.30;;
5981;SDS011;3018;48.730;9.336;2022-09-06T12:24:49;6.03;;;2.38;;
5981;SDS011;3018;48.730;9.336;2022-09-06T12:27:16;7.72;;;2.58;;
5981;SDS011;3018;48.730;9.336;2022-09-06T12:29:50;8.30;;;2.50;;
5981;SDS011;3018;48.730;9.336;2022-09-06T12:32:19;9.38;;;2.78;;
5981;SDS011;3018;48.730;9.336;2022-09-06T12:34:46;6.53;;;2.13;;
5981;SDS011;3018;48.730;9.336;2022-09-06T12:37:15;8.50;;;3.08;;
5981;SDS011;3018;48.730;9.336;2022-09-06T12:39:55;14.18;;;4.00;;
5981;SDS011;3018;48.730;9.336;2022-09-06T12:42:22;13.13;;;2.80;;
5981;SDS011;3018;48.730;9.336;2022-09-06T12:44:48;4.93;;;2.65;;
5981;SDS011;3018;48.730;9.336;2022-09-06T12:50:13;10.30;;;2.78;;
5981;SDS011;3018;48.730;9.336;2022-09-06T12:52:46;6.30;;;3.15;;
5981;SDS011;3018;48.730;9.336;2022-09-06T12:55:14;12.23;;;2.80;;
5981;SDS011;3018;48.730;9.336;2022-09-06T12:57:45;11.27;;;3.15;;
5981;SDS011;3018;48.730;9.336;2022-09-06T13:00:12;9.32;;;3.05;;
5981;SDS011;3018;48.730;9.336;2022-09-06T13:02:40;10.50;;;2.72;;
5981;SDS011;3018;48.730;9.336;2022-09-06T13:05:11;8.70;;;2.70;;
5981;SDS011;3018;48.730;9.336;2022-09-06T13:07:39;9.57;;;2.63;;
5981;SDS011;3018;48.730;9.336;2022-09-06T13:10:08;6.05;;;2.75;;
5981;SDS011;3018;48.730;9.336;2022-09-06T13:12:38;6.22;;;2.40;;
5981;SDS011;3018;48.730;9.336;2022-09-06T13:15:06;7.95;;;2.40;;
5981;SDS011;3018;48.730;9.336;2022-09-06T13:17:33;5.70;;;2.40;;
5981;SDS011;3018;48.730;9.336;2022-09-06T13:20:08;11.95;;;2.65;;
5981;SDS011;3018;48.730;9.336;2022-09-06T13:22:36;5.43;;;2.42;;
5981;SDS011;3018;48.730;9.336;2022-09-06T13:25:04;15.27;;;2.92;;
5981;SDS011;3018;48.730;9.336;2022-09-06T13:27:35;7.03;;;2.33;;
5981;SDS011;3018;48.730;9.336;2022-09-06T13:30:02;9.85;;;2.85;;
5981;SDS011;3018;48.730;9.336;2022-09-06T13:32:30;9.80;;;2.63;;
5981;SDS011;3018;48.730;9.336;2022-09-06T13:34:57;9.15;;;2.55;;
5981;SDS011;3018;48.730;9.336;2022-09-06T13:37:25;8.40;;;2.30;;
5981;SDS011;3018;48.730;9.336;2022-09-06T13:39:51;7.75;;;2.45;;
5981;SDS011;3018;48.730;9.336;2022-09-06T13:42:25;7.75;;;2.33;;
5981;SDS011;3018;48.730;9.336;2022-09-06T13:44:53;4.05;;;2.17;;
5981;SDS011;3018;48.730;9.336;2022-09-06T13:47:20;5.88;;;2.22;;
5981;SDS011;3018;48.730;9.336;2022-09-06T13:49:47;7.20;;;1.90;;
5981;SDS011;3018;48.730;9.336;2022-09-06T13:52:13;14.65;;;3.30;;
5981;SDS011;3018;48.730;9.336;2022-09-06T13:54:39;11.15;;;3.05;;
5981;SDS011;3018;48.730;9.336;2022-09-06T13:57:06;10.45;;;3.20;;
5981;SDS011;3018;48.730;9.336;2022-09-06T13:59:33;5.20;;;2.47;;
5981;SDS011;3018;48.730;9.336;2022-09-06T14:02:01;4.22;;;2.08;;
5981;SDS011;3018;48.730;9.336;2022-09-06T14:04:29;5.90;;;2.70;;
5981;SDS011;3018;48.730;9.336;2022-09-06T14:06:55;7.97;;;2.60;;
5981;SDS011;3018;48.730;9.336;2022-09-06T14:09:23;8.23;;;2.42;;
5981;SDS011;3018;48.730;9.336;2022-09-06T14:11:49;7.45;;;2.58;;
5981;SDS011;3018;48.730;9.336;2022-09-06T14:14:15;7.82;;;2.83;;
5981;SDS011;3018;48.730;9.336;2022-09-06T14:16:42;7.25;;;2.55;;
5981;SDS011;3018;48.730;9.336;2022-09-06T14:19:10;5.38;;;2.70;;
5981;SDS011;3018;48.730;9.336;2022-09-06T14:21:37;5.10;;;3.05;;
5981;SDS011;3018;48.730;9.336;2022-09-06T14:24:03;6.47;;;2.70;;
5981;SDS011;3018;48.730;9.336;2022-09-06T14:26:30;8.77;;;2.65;;
5981;SDS011;3018;48.730;9.336;2022-09-06T14:28:57;10.73;;;2.55;;
5981;SDS011;3018;48.730;9.336;2022-09-06T14:31:24;6.57;;;2.55;;
5981;SDS011;3018;48.730;9.336;2022-09-06T14:33:51;6.95;;;2.90;;
5981;SDS011;3018;48.730;9.336;2022-09-06T14:36:19;3.85;;;2.70;;
5981;SDS011;3018;48.730;9.336;2022-09-06T14:38:46;5.90;;;2.55;;
5981;SDS011;3018;48.730;9.336;2022-09-06T14:41:12;3.65;;;2.45;;
5981;SDS011;3018;48.730;9.336;2022-09-06T14:43:40;4.68;;;2.65;;
5981;SDS011;3018;48.730;9.336;2022-09-06T14:46:07;3.88;;;2.20;;
5981;SDS011;3018;48.730;9.336;2022-09-06T14:48:35;4.43;;;2.35;;
5981;SDS011;3018;48.730;9.336;2022-09-06T14:51:08;8.95;;;2.47;;
5981;SDS011;3018;48.730;9.336;2022-09-06T14:53:37;5.20;;;2.30;;
5981;SDS011;3018;48.730;9.336;2022-09-06T14:56:04;6.03;;;2.90;;
5981;SDS011;3018;48.730;9.336;2022-09-06T14:58:30;5.22;;;2.38;;
5981;SDS011;3018;48.730;9.336;2022-09-06T15:01:04;6.72;;;2.42;;
5981;SDS011;3018;48.730;9.336;2022-09-06T15:03:30;6.57;;;2.47;;
5981;SDS011;3018;48.730;9.336;2022-09-06T15:05:57;5.15;;;2.17;;
5981;SDS011;3018;48.730;9.336;2022-09-06T15:08:23;5.43;;;2.70;;
5981;SDS011;3018;48.730;9.336;2022-09-06T15:10:52;10.90;;;3.00;;
5981;SDS011;3018;48.730;9.336;2022-09-06T15:13:19;7.07;;;2.50;;
5981;SDS011;3018;48.730;9.336;2022-09-06T15:15:45;7.60;;;2.75;;
5981;SDS011;3018;48.730;9.336;2022-09-06T15:18:12;10.32;;;3.15;;
5981;SDS011;3018;48.730;9.336;2022-09-06T15:20:38;9.02;;;2.70;;
5981;SDS011;3018;48.730;9.336;2022-09-06T15:23:05;6.07;;;2.63;;
5981;SDS011;3018;48.730;9.336;2022-09-06T15:25:31;10.05;;;2.80;;
5981;SDS011;3018;48.730;9.336;2022-09-06T15:27:59;4.20;;;2.45;;
5981;SDS011;3018;48.730;9.336;2022-09-06T15:30:25;8.15;;;2.55;;
5981;SDS011;3018;48.730;9.336;2022-09-06T15:32:51;8.48;;;2.50;;
5981;SDS011;3018;48.730;9.336;2022-09-06T15:35:17;4.70;;;2.50;;